createdAt,value
2018-10-17T00:00:58.123Z,23.75
2018-10-17T00:02:01.559Z,23.70
2018-10-17T00:03:05.268Z,23.75
2018-10-17T00:04:08.674Z,23.75
2018-10-17T00:05:12.224Z,23.74
2018-10-17T00:06:15.582Z,23.75
2018-10-17T00:07:19.256Z,23.74
2018-10-17T00:08:22.702Z,23.74
2018-10-17T00:09:26.109Z,23.75
2018-10-17T00:10:29.522Z,23.74
2018-10-17T00:11:33.005Z,23.76
2018-10-17T00:12:36.486Z,23.75
2018-10-17T00:13:39.950Z,23.75
2018-10-17T00:14:43.469Z,23.75
2018-10-17T00:15:46.899Z,23.75
2018-10-17T00:16:50.317Z,23.74
2018-10-17T00:17:53.707Z,23.74
2018-10-17T00:18:57.153Z,23.75
2018-10-17T00:20:00.543Z,23.76
2018-10-17T00:21:04.221Z,23.75
2018-10-17T00:22:08.103Z,23.75
2018-10-17T00:23:11.548Z,23.75
2018-10-17T00:24:14.939Z,23.75
2018-10-17T00:25:18.333Z,23.75
2018-10-17T00:26:21.716Z,23.75
2018-10-17T00:27:25.793Z,23.75
2018-10-17T00:28:29.185Z,23.75
2018-10-17T00:29:32.704Z,23.74
2018-10-17T00:30:36.103Z,23.73
2018-10-17T00:31:39.531Z,23.75
2018-10-17T00:32:42.881Z,23.74
2018-10-17T00:33:46.285Z,23.74
2018-10-17T00:34:49.715Z,23.72
2018-10-17T00:35:53.138Z,23.72
2018-10-17T00:36:56.599Z,23.72
2018-10-17T00:37:59.922Z,23.73
2018-10-17T00:39:03.455Z,23.72
2018-10-17T00:40:07.214Z,23.71
2018-10-17T00:41:10.641Z,23.71
2018-10-17T00:42:14.031Z,23.71
2018-10-17T00:43:17.674Z,23.71
2018-10-17T00:44:20.987Z,23.71
2018-10-17T00:45:24.899Z,23.71
2018-10-17T00:46:28.688Z,23.71
2018-10-17T00:47:32.065Z,23.72
2018-10-17T00:48:35.457Z,23.73
2018-10-17T00:49:38.892Z,23.74
2018-10-17T00:50:42.326Z,23.74
2018-10-17T00:51:45.772Z,23.73
2018-10-17T00:52:49.257Z,23.75
2018-10-17T00:53:52.648Z,23.75
2018-10-17T00:54:56.122Z,23.75
2018-10-17T00:55:59.715Z,23.75
2018-10-17T00:57:03.098Z,23.75
2018-10-17T00:58:06.543Z,23.75
2018-10-17T00:59:14.380Z,23.76
2018-10-17T01:00:17.808Z,23.75
2018-10-17T01:01:21.300Z,23.76
2018-10-17T01:02:24.780Z,23.75
2018-10-17T01:03:28.199Z,23.76
2018-10-17T01:04:31.625Z,23.75
2018-10-17T01:05:35.039Z,23.75
2018-10-17T01:06:38.909Z,23.75
2018-10-17T01:07:42.315Z,23.75
2018-10-17T01:08:45.689Z,23.75
2018-10-17T01:09:49.111Z,23.75
2018-10-17T01:10:52.517Z,23.73
2018-10-17T01:11:56.082Z,23.74
2018-10-17T01:12:59.507Z,23.73
2018-10-17T01:14:03.220Z,23.74
2018-10-17T01:15:06.657Z,23.73
2018-10-17T01:16:10.138Z,23.71
2018-10-17T01:17:13.620Z,23.72
2018-10-17T01:18:16.984Z,23.72
2018-10-17T01:19:20.388Z,23.71
2018-10-17T01:20:23.788Z,23.71
2018-10-17T01:21:27.388Z,23.73
2018-10-17T01:22:30.850Z,23.72
2018-10-17T01:23:34.265Z,23.73
2018-10-17T01:24:37.702Z,23.71
2018-10-17T01:25:41.295Z,23.72
2018-10-17T01:26:44.689Z,23.72
2018-10-17T01:27:48.131Z,23.71
2018-10-17T01:28:51.851Z,23.73
2018-10-17T01:29:55.826Z,23.72
2018-10-17T01:30:59.280Z,23.72
2018-10-17T01:32:05.368Z,23.70
2018-10-17T01:33:08.765Z,23.72
2018-10-17T01:34:12.180Z,23.71
2018-10-17T01:35:15.644Z,23.71
2018-10-17T01:36:19.010Z,23.71
2018-10-17T01:37:22.388Z,23.71
2018-10-17T01:38:25.871Z,23.72
2018-10-17T01:39:29.296Z,23.70
2018-10-17T01:40:32.857Z,23.72
2018-10-17T01:41:36.295Z,23.72
2018-10-17T01:42:39.764Z,23.71
2018-10-17T01:43:43.140Z,23.72
2018-10-17T01:44:46.953Z,23.71
2018-10-17T01:45:50.398Z,23.71
2018-10-17T01:46:53.895Z,23.71
2018-10-17T01:47:57.360Z,23.70
2018-10-17T01:49:00.818Z,23.70
2018-10-17T01:50:04.848Z,23.70
2018-10-17T01:51:08.220Z,23.70
2018-10-17T01:52:11.844Z,23.69
2018-10-17T01:53:15.418Z,23.69
2018-10-17T01:54:18.705Z,23.68
2018-10-17T01:55:22.109Z,23.68
2018-10-17T01:56:30.898Z,23.67
2018-10-17T01:57:34.498Z,23.69
2018-10-17T01:58:37.872Z,23.67
2018-10-17T01:59:41.253Z,23.68
2018-10-17T02:00:44.659Z,23.67
2018-10-17T02:01:48.113Z,23.67
2018-10-17T02:02:51.635Z,23.66
2018-10-17T02:03:55.185Z,23.66
2018-10-17T02:04:58.646Z,23.66
2018-10-17T02:06:02.086Z,23.66
2018-10-17T02:07:06.037Z,23.65
2018-10-17T02:08:09.409Z,23.65
2018-10-17T02:09:12.837Z,23.64
2018-10-17T02:10:16.237Z,23.65
2018-10-17T02:11:19.598Z,23.64
2018-10-17T02:12:23.001Z,23.63
2018-10-17T02:13:26.413Z,23.63
2018-10-17T02:14:29.799Z,23.62
2018-10-17T02:15:33.276Z,23.63
2018-10-17T02:16:36.778Z,23.62
2018-10-17T02:17:40.161Z,23.63
2018-10-17T02:18:43.573Z,23.63
2018-10-17T02:19:46.962Z,23.63
2018-10-17T02:20:50.853Z,23.62
2018-10-17T02:21:54.341Z,23.63
2018-10-17T02:22:57.777Z,23.62
2018-10-17T02:24:01.267Z,23.63
2018-10-17T02:25:05.117Z,23.63
2018-10-17T02:26:08.487Z,23.62
2018-10-17T02:27:11.891Z,23.64
2018-10-17T02:28:16.224Z,23.63
2018-10-17T02:29:19.602Z,23.64
2018-10-17T02:30:23.032Z,23.65
2018-10-17T02:31:26.492Z,23.65
2018-10-17T02:32:29.896Z,23.65
2018-10-17T02:33:33.365Z,23.64
2018-10-17T02:34:42.160Z,23.65
2018-10-17T02:35:45.540Z,23.65
2018-10-17T02:36:48.926Z,23.64
2018-10-17T02:37:52.364Z,23.63
2018-10-17T02:38:55.894Z,23.63
2018-10-17T02:39:59.257Z,23.62
2018-10-17T02:41:02.939Z,23.62
2018-10-17T02:42:06.524Z,23.62
2018-10-17T02:43:09.978Z,23.61
2018-10-17T02:44:13.387Z,23.61
2018-10-17T02:45:16.807Z,23.61
2018-10-17T02:46:20.235Z,23.61
2018-10-17T02:47:23.767Z,23.61
2018-10-17T02:48:27.232Z,23.61
2018-10-17T02:49:30.684Z,23.60
2018-10-17T02:50:34.109Z,23.60
2018-10-17T02:51:37.534Z,23.59
2018-10-17T02:52:41.982Z,23.60
2018-10-17T02:53:45.409Z,23.59
2018-10-17T02:54:48.784Z,23.60
2018-10-17T02:55:52.176Z,23.59
2018-10-17T02:56:55.745Z,23.59
2018-10-17T02:57:59.185Z,23.58
2018-10-17T02:59:02.613Z,23.58
2018-10-17T03:00:07.350Z,23.57
2018-10-17T03:01:10.772Z,23.56
2018-10-17T03:02:14.232Z,23.56
2018-10-17T03:03:17.641Z,23.56
2018-10-17T03:04:21.157Z,23.56
2018-10-17T03:05:24.564Z,23.55
2018-10-17T03:06:27.981Z,23.55
2018-10-17T03:07:31.410Z,23.56
2018-10-17T03:08:34.896Z,23.56
2018-10-17T03:09:38.319Z,23.56
2018-10-17T03:10:41.915Z,23.56
2018-10-17T03:11:45.324Z,23.55
2018-10-17T03:12:48.740Z,23.55
2018-10-17T03:13:52.126Z,23.55
2018-10-17T03:14:55.546Z,23.54
2018-10-17T03:15:58.995Z,23.54
2018-10-17T03:17:02.495Z,23.54
2018-10-17T03:18:06.019Z,23.54
2018-10-17T03:19:09.447Z,23.54
2018-10-17T03:20:12.872Z,23.54
2018-10-17T03:21:16.277Z,23.54
2018-10-17T03:22:19.685Z,23.54
2018-10-17T03:23:23.121Z,23.52
2018-10-17T03:24:26.516Z,23.54
2018-10-17T03:25:29.944Z,23.53
2018-10-17T03:26:33.484Z,23.52
2018-10-17T03:27:37.036Z,23.52
2018-10-17T03:28:40.427Z,23.52
2018-10-17T03:29:43.810Z,23.52
2018-10-17T03:30:47.229Z,23.51
2018-10-17T03:31:50.691Z,23.46
2018-10-17T03:32:54.074Z,23.51
2018-10-17T03:33:57.495Z,23.51
2018-10-17T03:35:01.047Z,23.49
2018-10-17T03:36:04.772Z,23.49
2018-10-17T03:37:08.274Z,23.49
2018-10-17T03:38:11.593Z,23.49
2018-10-17T03:39:15.397Z,23.49
2018-10-17T03:40:18.796Z,23.47
2018-10-17T03:41:22.194Z,23.49
2018-10-17T03:42:26.179Z,23.48
2018-10-17T03:43:29.597Z,23.47
2018-10-17T03:44:33.015Z,23.48
2018-10-17T03:45:36.405Z,23.47
2018-10-17T03:46:39.932Z,23.47
2018-10-17T03:47:43.436Z,23.47
2018-10-17T03:48:46.879Z,23.47
2018-10-17T03:49:50.359Z,23.46
2018-10-17T03:50:53.787Z,23.45
2018-10-17T03:51:57.335Z,23.45
2018-10-17T03:53:00.834Z,23.45
2018-10-17T03:54:04.259Z,23.45
2018-10-17T03:55:07.660Z,23.44
2018-10-17T03:56:11.066Z,23.45
2018-10-17T03:57:14.512Z,23.44
2018-10-17T03:58:17.925Z,23.43
2018-10-17T03:59:21.483Z,23.44
2018-10-17T04:00:24.737Z,23.43
2018-10-17T04:01:28.346Z,23.43
2018-10-17T04:02:31.736Z,23.43
2018-10-17T04:03:35.149Z,23.43
2018-10-17T04:04:38.602Z,23.43
2018-10-17T04:05:41.981Z,23.42
2018-10-17T04:06:45.461Z,23.42
2018-10-17T04:07:48.884Z,23.42
2018-10-17T04:08:52.565Z,23.41
2018-10-17T04:09:55.960Z,23.41
2018-10-17T04:10:59.383Z,23.41
2018-10-17T04:12:02.774Z,23.41
2018-10-17T04:13:06.281Z,23.42
2018-10-17T04:14:09.660Z,23.42
2018-10-17T04:15:13.124Z,23.40
2018-10-17T04:16:16.495Z,23.42
2018-10-17T04:17:19.890Z,23.44
2018-10-17T04:18:23.298Z,23.44
2018-10-17T04:19:26.722Z,23.45
2018-10-17T04:20:30.104Z,23.44
2018-10-17T04:21:33.509Z,23.44
2018-10-17T04:22:37.053Z,23.44
2018-10-17T04:23:40.376Z,23.44
2018-10-17T04:24:43.837Z,23.44
2018-10-17T04:25:47.340Z,23.43
2018-10-17T04:26:50.820Z,23.43
2018-10-17T04:27:55.163Z,23.43
2018-10-17T04:28:58.570Z,23.43
2018-10-17T04:30:01.996Z,23.42
2018-10-17T04:31:05.538Z,23.42
2018-10-17T04:32:08.973Z,23.42
2018-10-17T04:33:12.437Z,23.43
2018-10-17T04:34:15.830Z,23.43
2018-10-17T04:35:19.519Z,23.42
2018-10-17T04:36:22.993Z,23.42
2018-10-17T04:37:26.315Z,23.42
2018-10-17T04:38:29.747Z,23.43
2018-10-17T04:39:33.148Z,23.42
2018-10-17T04:40:36.661Z,23.41
2018-10-17T04:41:41.006Z,23.42
2018-10-17T04:42:44.633Z,23.42
2018-10-17T04:43:48.009Z,23.41
2018-10-17T04:44:51.441Z,23.40
2018-10-17T04:45:55.627Z,23.39
2018-10-17T04:46:59.096Z,23.39
2018-10-17T04:48:02.913Z,23.38
2018-10-17T04:49:07.123Z,23.39
2018-10-17T04:50:11.504Z,23.38
2018-10-17T04:51:15.288Z,23.37
2018-10-17T04:52:18.661Z,23.38
2018-10-17T04:53:22.080Z,23.37
2018-10-17T04:54:25.487Z,23.38
2018-10-17T04:55:28.929Z,23.37
2018-10-17T04:56:32.462Z,23.38
2018-10-17T04:57:35.897Z,23.40
2018-10-17T04:58:39.285Z,23.39
2018-10-17T04:59:42.652Z,23.38
2018-10-17T05:00:46.046Z,23.41
2018-10-17T05:01:49.579Z,23.39
2018-10-17T05:02:53.015Z,23.37
2018-10-17T05:03:56.424Z,23.33
2018-10-17T05:04:59.956Z,23.31
2018-10-17T05:06:03.480Z,23.27
2018-10-17T05:07:06.989Z,23.24
2018-10-17T05:08:10.443Z,23.19
2018-10-17T05:09:13.936Z,23.15
2018-10-17T05:10:17.367Z,23.12
2018-10-17T05:11:20.797Z,23.08
2018-10-17T05:12:24.245Z,23.05
2018-10-17T05:13:27.657Z,23.02
2018-10-17T05:14:31.006Z,23.04
2018-10-17T05:15:34.427Z,23.00
2018-10-17T05:16:37.835Z,22.99
2018-10-17T05:17:41.235Z,22.98
2018-10-17T05:18:44.762Z,22.96
2018-10-17T05:19:48.141Z,22.93
2018-10-17T05:20:51.538Z,22.92
2018-10-17T05:21:54.941Z,22.90
2018-10-17T05:22:58.430Z,22.88
2018-10-17T05:24:01.877Z,22.87
2018-10-17T05:25:06.568Z,22.86
2018-10-17T05:26:09.942Z,22.85
2018-10-17T05:27:13.330Z,22.85
2018-10-17T05:28:16.863Z,22.85
2018-10-17T05:29:20.289Z,22.85
2018-10-17T05:30:23.774Z,22.86
2018-10-17T05:31:27.186Z,22.85
2018-10-17T05:32:30.561Z,22.85
2018-10-17T05:33:34.024Z,22.86
2018-10-17T05:34:37.412Z,22.85
2018-10-17T05:35:40.883Z,22.86
2018-10-17T05:36:44.264Z,22.87
2018-10-17T05:37:47.762Z,22.86
2018-10-17T05:38:51.173Z,22.87
2018-10-17T05:39:54.674Z,22.88
2018-10-17T05:40:58.145Z,22.89
2018-10-17T05:42:01.581Z,22.88
2018-10-17T05:43:05.079Z,22.89
2018-10-17T05:44:08.483Z,22.89
2018-10-17T05:45:11.874Z,22.89
2018-10-17T05:46:15.293Z,22.88
2018-10-17T05:47:18.686Z,22.89
2018-10-17T05:48:22.109Z,22.89
2018-10-17T05:49:25.586Z,22.88
2018-10-17T05:50:29.073Z,22.89
2018-10-17T05:51:32.497Z,22.83
2018-10-17T05:52:35.876Z,22.89
2018-10-17T05:53:39.239Z,22.89
2018-10-17T05:54:42.661Z,22.89
2018-10-17T05:55:46.320Z,22.88
2018-10-17T05:56:49.687Z,22.88
2018-10-17T05:57:53.179Z,22.89
2018-10-17T05:58:56.567Z,22.88
2018-10-17T06:00:00.057Z,22.87
2018-10-17T06:01:03.506Z,22.89
2018-10-17T06:02:10.594Z,22.87
2018-10-17T06:03:13.949Z,22.87
2018-10-17T06:04:17.444Z,22.87
2018-10-17T06:05:20.881Z,22.87
2018-10-17T06:06:24.380Z,22.86
2018-10-17T06:07:27.822Z,22.87
2018-10-17T06:08:31.254Z,22.86
2018-10-17T06:09:34.667Z,22.87
2018-10-17T06:10:38.174Z,22.86
2018-10-17T06:11:42.039Z,22.86
2018-10-17T06:12:45.474Z,22.85
2018-10-17T06:13:48.898Z,22.84
2018-10-17T06:14:52.300Z,22.86
2018-10-17T06:15:55.829Z,22.85
2018-10-17T06:16:59.315Z,22.84
2018-10-17T06:18:02.715Z,22.84
2018-10-17T06:19:06.260Z,22.85
2018-10-17T06:20:09.735Z,22.84
2018-10-17T06:21:13.165Z,22.84
2018-10-17T06:22:16.572Z,22.84
2018-10-17T06:23:19.971Z,22.83
2018-10-17T06:24:23.406Z,22.84
2018-10-17T06:25:26.808Z,22.83
2018-10-17T06:26:30.381Z,22.84
2018-10-17T06:27:33.808Z,22.83
2018-10-17T06:28:37.188Z,22.81
2018-10-17T06:29:40.629Z,22.83
2018-10-17T06:30:44.226Z,22.83
2018-10-17T06:31:47.647Z,22.83
2018-10-17T06:32:51.056Z,22.76
2018-10-17T06:33:54.603Z,22.82
2018-10-17T06:34:58.061Z,22.81
2018-10-17T06:36:01.488Z,22.81
2018-10-17T06:37:05.473Z,22.81
2018-10-17T06:38:08.948Z,22.81
2018-10-17T06:39:12.997Z,22.80
2018-10-17T06:40:16.400Z,22.81
2018-10-17T06:41:20.335Z,22.80
2018-10-17T06:42:23.911Z,22.81
2018-10-17T06:43:27.401Z,22.80
2018-10-17T06:44:30.790Z,22.80
2018-10-17T06:45:34.229Z,22.78
2018-10-17T06:46:37.677Z,22.79
2018-10-17T06:47:41.204Z,22.79
2018-10-17T06:48:44.598Z,22.79
2018-10-17T06:49:47.971Z,22.78
2018-10-17T06:50:51.355Z,22.78
2018-10-17T06:51:54.875Z,22.74
2018-10-17T06:52:58.390Z,22.78
2018-10-17T06:54:01.916Z,22.78
2018-10-17T06:55:06.078Z,22.78
2018-10-17T06:56:09.401Z,22.77
2018-10-17T06:57:12.784Z,22.77
2018-10-17T06:58:16.213Z,22.78
2018-10-17T06:59:19.633Z,22.77
2018-10-17T07:00:23.118Z,22.77
2018-10-17T07:01:26.647Z,22.77
2018-10-17T07:02:30.079Z,22.76
2018-10-17T07:03:33.542Z,22.76
2018-10-17T07:04:37.022Z,22.76
2018-10-17T07:05:40.432Z,22.77
2018-10-17T07:06:44.044Z,22.75
2018-10-17T07:07:47.658Z,22.76
2018-10-17T07:08:51.090Z,22.75
2018-10-17T07:09:54.629Z,22.75
2018-10-17T07:10:58.111Z,22.76
2018-10-17T07:12:01.468Z,22.74
2018-10-17T07:13:05.068Z,22.74
2018-10-17T07:14:08.468Z,22.69
2018-10-17T07:15:11.964Z,22.71
2018-10-17T07:16:15.397Z,22.74
2018-10-17T07:17:18.877Z,22.73
2018-10-17T07:18:22.397Z,22.72
2018-10-17T07:19:25.976Z,22.74
2018-10-17T07:20:29.404Z,22.71
2018-10-17T07:21:32.813Z,22.73
2018-10-17T07:22:36.225Z,22.73
2018-10-17T07:23:39.668Z,22.73
2018-10-17T07:24:43.100Z,22.73
2018-10-17T07:25:48.940Z,22.72
2018-10-17T07:26:52.350Z,22.72
2018-10-17T07:27:56.695Z,22.72
2018-10-17T07:29:00.103Z,22.73
2018-10-17T07:30:03.539Z,22.72
2018-10-17T07:31:07.586Z,22.72
2018-10-17T07:32:11.111Z,22.72
2018-10-17T07:33:14.667Z,22.73
2018-10-17T07:34:18.090Z,22.72
2018-10-17T07:35:21.483Z,22.73
2018-10-17T07:36:24.885Z,22.66
2018-10-17T07:37:28.453Z,22.72
2018-10-17T07:38:31.903Z,22.72
2018-10-17T07:39:35.308Z,22.72
2018-10-17T07:40:38.706Z,22.72
2018-10-17T07:41:42.102Z,22.71
2018-10-17T07:42:45.486Z,22.70
2018-10-17T07:43:48.904Z,22.71
2018-10-17T07:44:52.305Z,22.71
2018-10-17T07:45:55.780Z,22.69
2018-10-17T07:46:59.212Z,22.69
2018-10-17T07:48:02.693Z,22.70
2018-10-17T07:49:06.142Z,22.69
2018-10-17T07:50:10.556Z,22.70
2018-10-17T07:51:13.960Z,22.69
2018-10-17T07:52:17.399Z,22.68
2018-10-17T07:53:20.862Z,22.69
2018-10-17T07:54:24.226Z,22.69
2018-10-17T07:55:27.645Z,22.69
2018-10-17T07:56:31.103Z,22.68
2018-10-17T07:57:34.474Z,22.68
2018-10-17T07:58:37.953Z,22.69
2018-10-17T07:59:41.383Z,22.68
2018-10-17T08:00:44.809Z,22.67
2018-10-17T08:01:48.219Z,22.67
2018-10-17T08:02:51.592Z,22.67
2018-10-17T08:03:55.087Z,22.68
2018-10-17T08:04:58.513Z,22.67
2018-10-17T08:06:01.951Z,22.66
2018-10-17T08:07:05.756Z,22.67
2018-10-17T08:08:09.179Z,22.65
2018-10-17T08:09:12.877Z,22.66
2018-10-17T08:10:16.293Z,22.65
2018-10-17T08:11:19.714Z,22.66
2018-10-17T08:12:23.205Z,22.66
2018-10-17T08:13:26.899Z,22.65
2018-10-17T08:14:30.372Z,22.65
2018-10-17T08:15:33.800Z,22.65
2018-10-17T08:16:37.211Z,22.65
2018-10-17T08:17:40.713Z,22.66
2018-10-17T08:18:44.141Z,22.64
2018-10-17T08:19:47.507Z,22.66
2018-10-17T08:20:50.938Z,22.64
2018-10-17T08:21:54.428Z,22.64
2018-10-17T08:22:57.873Z,22.66
2018-10-17T08:24:01.356Z,22.65
2018-10-17T08:25:06.155Z,22.65
2018-10-17T08:26:09.552Z,22.65
2018-10-17T08:27:13.161Z,22.64
2018-10-17T08:28:16.570Z,22.65
2018-10-17T08:29:20.036Z,22.65
2018-10-17T08:30:23.520Z,22.65
2018-10-17T08:31:26.967Z,22.65
2018-10-17T08:32:30.379Z,22.65
2018-10-17T08:33:33.792Z,22.65
2018-10-17T08:34:37.379Z,22.66
2018-10-17T08:35:40.883Z,22.60
2018-10-17T08:36:44.488Z,22.64
2018-10-17T08:37:48.196Z,22.64
2018-10-17T08:38:51.146Z,22.64
2018-10-17T08:39:54.517Z,22.65
2018-10-17T08:40:58.085Z,22.64
2018-10-17T08:42:01.507Z,22.65
2018-10-17T08:43:06.013Z,22.59
2018-10-17T08:44:09.522Z,22.65
2018-10-17T08:45:12.933Z,22.66
2018-10-17T08:46:16.323Z,22.64
2018-10-17T08:47:19.722Z,22.65
2018-10-17T08:48:23.178Z,22.65
2018-10-17T08:49:26.728Z,22.65
2018-10-17T08:50:30.272Z,22.58
2018-10-17T08:51:33.594Z,22.65
2018-10-17T08:52:36.958Z,22.64
2018-10-17T08:53:40.369Z,22.63
2018-10-17T08:54:43.756Z,22.64
2018-10-17T08:55:47.155Z,22.64
2018-10-17T08:56:50.582Z,22.63
2018-10-17T08:57:54.020Z,22.65
2018-10-17T08:58:57.448Z,22.65
2018-10-17T09:00:01.063Z,22.60
2018-10-17T09:01:04.592Z,22.60
2018-10-17T09:02:08.284Z,22.66
2018-10-17T09:03:11.709Z,22.64
2018-10-17T09:04:15.163Z,22.65
2018-10-17T09:05:18.624Z,22.65
2018-10-17T09:06:22.032Z,22.66
2018-10-17T09:07:25.680Z,22.64
2018-10-17T09:08:29.135Z,22.66
2018-10-17T09:09:32.646Z,22.66
2018-10-17T09:10:36.048Z,22.65
2018-10-17T09:11:39.944Z,22.60
2018-10-17T09:12:43.379Z,22.66
2018-10-17T09:13:46.806Z,22.66
2018-10-17T09:14:50.219Z,22.66
2018-10-17T09:15:53.609Z,22.66
2018-10-17T09:16:57.061Z,22.67
2018-10-17T09:18:00.515Z,22.65
2018-10-17T09:19:03.967Z,22.66
2018-10-17T09:20:08.797Z,22.66
2018-10-17T09:21:12.148Z,22.66
2018-10-17T09:22:15.664Z,22.67
2018-10-17T09:23:18.815Z,22.66
2018-10-17T09:24:22.300Z,22.67
2018-10-17T09:25:25.882Z,22.66
2018-10-17T09:26:29.491Z,22.67
2018-10-17T09:27:32.879Z,22.66
2018-10-17T09:28:36.265Z,22.68
2018-10-17T09:29:39.678Z,22.67
2018-10-17T09:30:44.593Z,22.67
2018-10-17T09:31:48.287Z,22.67
2018-10-17T09:32:51.717Z,22.67
2018-10-17T09:33:55.197Z,22.68
2018-10-17T09:34:58.686Z,22.68
2018-10-17T09:36:02.136Z,22.68
2018-10-17T09:37:05.687Z,22.67
2018-10-17T09:38:09.096Z,22.67
2018-10-17T09:39:12.896Z,22.68
2018-10-17T09:40:16.314Z,22.67
2018-10-17T09:41:19.715Z,22.68
2018-10-17T09:42:23.152Z,22.68
2018-10-17T09:43:27.419Z,22.68
2018-10-17T09:44:30.818Z,22.68
2018-10-17T09:45:34.236Z,22.68
2018-10-17T09:46:37.700Z,22.68
2018-10-17T09:47:41.104Z,22.69
2018-10-17T09:48:44.502Z,22.68
2018-10-17T09:49:47.971Z,22.68
2018-10-17T09:50:51.440Z,22.69
2018-10-17T09:51:54.872Z,22.68
2018-10-17T09:52:58.390Z,22.69
2018-10-17T09:54:02.091Z,22.68
2018-10-17T09:55:06.164Z,22.69
2018-10-17T09:56:11.016Z,22.69
2018-10-17T09:57:14.447Z,22.69
2018-10-17T09:58:17.966Z,22.71
2018-10-17T09:59:21.420Z,22.71
2018-10-17T10:00:30.822Z,22.71
2018-10-17T10:01:34.296Z,22.70
2018-10-17T10:02:37.749Z,22.71
2018-10-17T10:03:41.213Z,22.71
2018-10-17T10:04:46.397Z,22.71
2018-10-17T10:05:50.198Z,22.71
2018-10-17T10:06:54.098Z,22.71
2018-10-17T10:07:57.954Z,22.69
2018-10-17T10:09:01.390Z,22.71
2018-10-17T10:10:05.184Z,22.70
2018-10-17T10:11:08.887Z,22.71
2018-10-17T10:12:12.409Z,22.71
2018-10-17T10:13:15.829Z,22.72
2018-10-17T10:14:19.262Z,22.71
2018-10-17T10:15:22.727Z,22.71
2018-10-17T10:16:27.127Z,22.71
2018-10-17T10:17:31.103Z,22.71
2018-10-17T10:18:34.499Z,22.71
2018-10-17T10:19:38.057Z,22.71
2018-10-17T10:20:41.502Z,22.71
2018-10-17T10:21:45.084Z,22.71
2018-10-17T10:22:48.497Z,22.66
2018-10-17T10:23:52.572Z,22.71
2018-10-17T10:24:56.109Z,22.67
2018-10-17T10:25:59.523Z,22.73
2018-10-17T10:27:03.123Z,22.72
2018-10-17T10:28:06.636Z,22.72
2018-10-17T10:29:09.994Z,22.71
2018-10-17T10:30:13.429Z,22.72
2018-10-17T10:31:16.862Z,22.72
2018-10-17T10:32:20.268Z,22.72
2018-10-17T10:33:23.763Z,22.71
2018-10-17T10:34:27.166Z,22.70
2018-10-17T10:35:30.997Z,22.69
2018-10-17T10:36:34.422Z,22.70
2018-10-17T10:37:37.828Z,22.70
2018-10-17T10:38:41.241Z,22.70
2018-10-17T10:39:44.684Z,22.71
2018-10-17T10:40:48.132Z,22.71
2018-10-17T10:41:51.528Z,22.71
2018-10-17T10:42:54.992Z,22.71
2018-10-17T10:43:58.587Z,22.71
2018-10-17T10:45:02.025Z,22.72
2018-10-17T10:46:06.250Z,22.70
2018-10-17T10:47:09.694Z,22.72
2018-10-17T10:48:13.271Z,22.73
2018-10-17T10:49:16.707Z,22.73
2018-10-17T10:50:20.178Z,22.73
2018-10-17T10:51:23.727Z,22.73
2018-10-17T10:52:27.062Z,22.73
2018-10-17T10:53:30.503Z,22.73
2018-10-17T10:54:33.934Z,22.73
2018-10-17T10:55:37.333Z,22.73
2018-10-17T10:56:40.836Z,22.75
2018-10-17T10:57:44.254Z,22.75
2018-10-17T10:58:47.723Z,22.74
2018-10-17T10:59:51.150Z,22.73
2018-10-17T11:00:54.598Z,22.75
2018-10-17T11:01:58.122Z,22.75
2018-10-17T11:03:01.509Z,22.75
2018-10-17T11:04:05.493Z,22.74
2018-10-17T11:05:09.247Z,22.75
2018-10-17T11:06:12.680Z,22.75
2018-10-17T11:07:16.073Z,22.74
2018-10-17T11:08:19.478Z,22.74
2018-10-17T11:09:22.951Z,22.77
2018-10-17T11:10:26.413Z,22.77
2018-10-17T11:11:29.872Z,22.72
2018-10-17T11:12:33.366Z,22.77
2018-10-17T11:13:36.736Z,22.76
2018-10-17T11:14:40.248Z,22.75
2018-10-17T11:15:43.624Z,22.77
2018-10-17T11:16:47.070Z,22.77
2018-10-17T11:17:50.468Z,22.77
2018-10-17T11:18:53.876Z,22.77
2018-10-17T11:19:57.325Z,22.77
2018-10-17T11:21:00.723Z,22.78
2018-10-17T11:22:04.305Z,22.77
2018-10-17T11:23:07.599Z,22.77
2018-10-17T11:24:10.992Z,22.77
2018-10-17T11:25:14.404Z,22.78
2018-10-17T11:26:17.803Z,22.78
2018-10-17T11:27:21.228Z,22.78
2018-10-17T11:28:24.728Z,22.74
2018-10-17T11:29:28.155Z,22.77
2018-10-17T11:30:31.566Z,22.78
2018-10-17T11:31:35.036Z,22.77
2018-10-17T11:32:38.467Z,22.77
2018-10-17T11:33:41.884Z,22.77
2018-10-17T11:34:45.242Z,22.77
2018-10-17T11:35:48.675Z,22.77
2018-10-17T11:36:52.078Z,22.78
2018-10-17T11:37:55.551Z,22.78
2018-10-17T11:38:59.071Z,22.78
2018-10-17T11:40:02.489Z,22.78
2018-10-17T11:41:05.970Z,22.78
2018-10-17T11:42:09.360Z,22.77
2018-10-17T11:43:12.761Z,22.78
2018-10-17T11:44:16.191Z,22.78
2018-10-17T11:45:19.725Z,22.78
2018-10-17T11:46:23.092Z,22.78
2018-10-17T11:47:26.653Z,22.78
2018-10-17T11:48:30.070Z,22.78
2018-10-17T11:49:33.487Z,22.77
2018-10-17T11:50:36.981Z,22.78
2018-10-17T11:51:40.404Z,22.77
2018-10-17T11:52:43.828Z,22.79
2018-10-17T11:53:47.283Z,22.78
2018-10-17T11:54:50.708Z,22.78
2018-10-17T11:55:54.172Z,22.78
2018-10-17T11:56:57.600Z,22.77
2018-10-17T11:58:01.074Z,22.78
2018-10-17T11:59:04.614Z,22.79
2018-10-17T12:00:10.015Z,22.81
2018-10-17T12:01:13.475Z,22.85
2018-10-17T12:02:16.936Z,22.85
2018-10-17T12:03:20.391Z,22.83
2018-10-17T12:04:23.969Z,22.83
2018-10-17T12:05:27.492Z,22.83
2018-10-17T12:06:30.790Z,22.83
2018-10-17T12:07:34.094Z,22.83
2018-10-17T12:08:37.522Z,22.82
2018-10-17T12:09:41.161Z,22.83
2018-10-17T12:10:44.605Z,22.82
2018-10-17T12:11:48.050Z,22.82
2018-10-17T12:12:51.451Z,22.82
2018-10-17T12:13:55.521Z,22.81
2018-10-17T12:14:59.090Z,22.82
2018-10-17T12:16:02.548Z,22.83
2018-10-17T12:17:06.428Z,22.82
2018-10-17T12:18:10.616Z,22.82
2018-10-17T12:19:15.582Z,22.81
2018-10-17T12:20:18.970Z,22.81
2018-10-17T12:21:22.482Z,22.80
2018-10-17T12:22:26.101Z,22.81
2018-10-17T12:23:29.507Z,22.80
2018-10-17T12:24:32.930Z,22.81
2018-10-17T12:25:36.432Z,22.80
2018-10-17T12:26:39.844Z,22.80
2018-10-17T12:27:43.659Z,22.80
2018-10-17T12:28:47.468Z,22.80
2018-10-17T12:29:50.934Z,22.80
2018-10-17T12:30:54.346Z,22.80
2018-10-17T12:31:57.983Z,22.80
2018-10-17T12:33:01.498Z,22.79
2018-10-17T12:34:04.908Z,22.79
2018-10-17T12:35:08.796Z,22.79
2018-10-17T12:36:12.229Z,22.80
2018-10-17T12:37:15.956Z,22.80
2018-10-17T12:38:19.385Z,22.80
2018-10-17T12:39:22.972Z,22.79
2018-10-17T12:40:26.741Z,22.79
2018-10-17T12:41:30.475Z,22.80
2018-10-17T12:42:33.867Z,22.79
2018-10-17T12:43:37.274Z,22.81
2018-10-17T12:44:40.697Z,22.80
2018-10-17T12:45:44.181Z,22.79
2018-10-17T12:46:47.601Z,22.79
2018-10-17T12:47:51.105Z,22.80
2018-10-17T12:48:54.899Z,22.78
2018-10-17T12:49:58.387Z,22.80
2018-10-17T12:51:01.797Z,22.79
2018-10-17T12:52:05.545Z,22.79
2018-10-17T12:53:09.092Z,22.79
2018-10-17T12:54:12.628Z,22.78
2018-10-17T12:55:16.136Z,22.77
2018-10-17T12:56:19.494Z,22.78
2018-10-17T12:57:22.921Z,22.78
2018-10-17T12:58:26.351Z,22.78
2018-10-17T12:59:31.032Z,22.74
2018-10-17T13:00:34.440Z,22.78
2018-10-17T13:01:37.860Z,22.79
2018-10-17T13:02:41.303Z,22.80
2018-10-17T13:03:44.728Z,22.82
2018-10-17T13:04:48.130Z,22.81
2018-10-17T13:05:51.529Z,22.81
2018-10-17T13:06:55.049Z,22.80
2018-10-17T13:07:58.556Z,22.81
2018-10-17T13:09:02.024Z,22.81
2018-10-17T13:10:06.227Z,22.81
2018-10-17T13:11:09.791Z,22.80
2018-10-17T13:12:13.167Z,22.81
2018-10-17T13:13:16.594Z,22.80
2018-10-17T13:14:20.005Z,22.81
2018-10-17T13:15:23.481Z,22.81
2018-10-17T13:16:26.965Z,22.80
2018-10-17T13:17:30.440Z,22.80
2018-10-17T13:18:33.841Z,22.81
2018-10-17T13:19:37.296Z,22.80
2018-10-17T13:20:40.697Z,22.81
2018-10-17T13:21:44.286Z,22.81
2018-10-17T13:22:47.725Z,22.80
2018-10-17T13:23:51.341Z,22.82
2018-10-17T13:24:54.774Z,22.82
2018-10-17T13:25:58.206Z,22.82
2018-10-17T13:27:01.585Z,22.82
2018-10-17T13:28:05.037Z,22.82
2018-10-17T13:29:08.486Z,22.82
2018-10-17T13:30:11.915Z,22.82
2018-10-17T13:31:15.341Z,22.82
2018-10-17T13:32:18.681Z,22.82
2018-10-17T13:33:22.186Z,22.82
2018-10-17T13:34:25.948Z,22.82
2018-10-17T13:35:29.404Z,22.83
2018-10-17T13:36:32.821Z,22.82
2018-10-17T13:37:36.229Z,22.83
2018-10-17T13:38:39.698Z,22.84